createdAt,value
2023-05-21T00:02:00.193Z,97.73
2023-05-21T00:04:28.832Z,97.22
2023-05-21T00:06:56.253Z,97.45
2023-05-21T00:09:23.208Z,97.53
2023-05-21T00:11:50.149Z,97.29
2023-05-21T00:14:17.304Z,96.90
2023-05-21T00:16:45.406Z,97.33
2023-05-21T00:19:13.541Z,96.68
2023-05-21T00:21:41.225Z,96.52
2023-05-21T00:24:08.372Z,96.18
2023-05-21T00:26:35.419Z,96.48
2023-05-21T00:29:02.806Z,96.43
2023-05-21T00:31:30.180Z,96.56
2023-05-21T00:33:57.137Z,95.91
2023-05-21T00:36:24.318Z,96.76
2023-05-21T00:38:51.821Z,96.21
2023-05-21T00:41:19.923Z,95.97
2023-05-21T00:43:47.485Z,96.34
2023-05-21T00:46:21.057Z,95.57
2023-05-21T00:48:49.525Z,95.13
2023-05-21T00:51:18.766Z,95.14
2023-05-21T00:53:46.854Z,95.71
2023-05-21T00:56:13.972Z,94.43
2023-05-21T00:58:41.897Z,94.81
2023-05-21T01:01:14.009Z,94.52
2023-05-21T01:03:42.182Z,94.70
2023-05-21T01:06:10.764Z,93.59
2023-05-21T01:08:38.557Z,94.12
2023-05-21T01:11:07.135Z,93.60
2023-05-21T01:13:37.677Z,94.00
2023-05-21T01:16:06.858Z,93.70
2023-05-21T01:18:38.537Z,93.72
2023-05-21T01:21:07.704Z,94.12
2023-05-21T01:23:36.258Z,94.00
2023-05-21T01:26:03.273Z,94.19
2023-05-21T01:28:33.121Z,94.63
2023-05-21T01:31:10.624Z,94.35
2023-05-21T01:33:47.302Z,93.99
2023-05-21T01:36:29.230Z,93.86
2023-05-21T01:39:26.086Z,94.09
2023-05-21T01:41:55.067Z,93.49
2023-05-21T01:44:25.594Z,93.93
2023-05-21T01:46:54.733Z,93.97
2023-05-21T01:49:22.825Z,93.84
2023-05-21T01:51:50.194Z,93.48
2023-05-21T01:54:17.213Z,93.73
2023-05-21T01:56:44.430Z,93.96
2023-05-21T01:59:11.796Z,93.67
2023-05-21T02:01:38.994Z,93.31
2023-05-21T02:04:07.315Z,93.49
2023-05-21T02:06:36.031Z,94.01
2023-05-21T02:09:03.941Z,94.46
2023-05-21T02:11:31.436Z,93.64
2023-05-21T02:13:58.639Z,93.83
2023-05-21T02:16:25.957Z,93.40
2023-05-21T02:18:57.687Z,93.73
2023-05-21T02:21:24.759Z,93.92
2023-05-21T02:23:51.775Z,93.76
2023-05-21T02:26:18.986Z,93.14
2023-05-21T02:28:46.151Z,93.46
2023-05-21T02:31:13.273Z,93.49
2023-05-21T02:33:42.328Z,93.25
2023-05-21T02:36:13.458Z,92.50
2023-05-21T02:38:43.976Z,93.47
2023-05-21T02:41:13.198Z,94.04
2023-05-21T02:43:40.259Z,93.47
2023-05-21T02:46:07.967Z,93.52
2023-05-21T02:48:35.941Z,93.85
2023-05-21T02:51:04.850Z,94.05
2023-05-21T02:53:32.280Z,93.93
2023-05-21T02:55:59.784Z,93.78
2023-05-21T02:58:27.369Z,94.12
2023-05-21T03:00:54.617Z,94.08
2023-05-21T03:03:21.844Z,93.48
2023-05-21T03:05:49.338Z,92.99
2023-05-21T03:08:17.086Z,92.32
2023-05-21T03:10:44.856Z,92.95
2023-05-21T03:13:11.817Z,92.44
2023-05-21T03:15:39.499Z,91.77
2023-05-21T03:18:06.763Z,91.86
2023-05-21T03:20:34.213Z,91.73
2023-05-21T03:23:04.411Z,91.82
2023-05-21T03:25:31.895Z,90.64
2023-05-21T03:27:59.062Z,90.25
2023-05-21T03:30:46.875Z,90.35
2023-05-21T03:33:32.616Z,90.76
2023-05-21T03:36:01.263Z,90.21
2023-05-21T03:38:32.003Z,89.75
2023-05-21T03:40:59.023Z,89.54
2023-05-21T03:43:26.223Z,89.19
2023-05-21T03:45:54.827Z,88.82
2023-05-21T03:48:40.672Z,89.50
2023-05-21T03:51:09.692Z,89.36
2023-05-21T03:53:37.295Z,89.05
2023-05-21T03:56:04.707Z,88.22
2023-05-21T03:58:32.959Z,88.53
2023-05-21T04:01:01.938Z,88.28
2023-05-21T04:03:30.296Z,88.38
2023-05-21T04:05:57.929Z,88.79
2023-05-21T04:08:24.950Z,87.27
2023-05-21T04:10:52.053Z,87.67
2023-05-21T04:13:19.090Z,86.89
2023-05-21T04:15:46.866Z,86.14
2023-05-21T04:18:16.657Z,85.09
2023-05-21T04:20:44.092Z,84.91
2023-05-21T04:23:12.207Z,85.33
2023-05-21T04:25:40.347Z,85.09
2023-05-21T04:28:07.511Z,85.16
2023-05-21T04:30:37.431Z,85.24
2023-05-21T04:33:04.873Z,84.81
2023-05-21T04:35:35.552Z,84.53
2023-05-21T04:38:04.244Z,85.04
2023-05-21T04:40:31.995Z,84.62
2023-05-21T04:43:00.998Z,83.80
2023-05-21T04:45:29.587Z,83.72
2023-05-21T04:48:00.901Z,84.48
2023-05-21T04:50:30.984Z,84.45
2023-05-21T04:52:58.929Z,83.96
2023-05-21T04:55:27.638Z,82.94
2023-05-21T04:57:55.016Z,82.71
2023-05-21T05:00:22.654Z,82.20
2023-05-21T05:02:49.947Z,82.01
2023-05-21T05:05:17.052Z,81.69
2023-05-21T05:07:44.362Z,81.73
2023-05-21T05:10:11.467Z,78.53
2023-05-21T05:12:38.554Z,77.87
2023-05-21T05:15:06.359Z,74.63
2023-05-21T05:17:34.549Z,74.45
2023-05-21T05:20:01.761Z,75.12
2023-05-21T05:22:32.237Z,75.07
2023-05-21T05:24:59.338Z,75.29
2023-05-21T05:27:26.392Z,74.74
2023-05-21T05:29:53.377Z,74.57
2023-05-21T05:32:20.542Z,75.34
2023-05-21T05:34:47.641Z,75.52
2023-05-21T05:37:15.351Z,74.37
2023-05-21T05:39:42.394Z,74.42
2023-05-21T05:42:09.503Z,75.17
2023-05-21T05:44:36.537Z,75.97
2023-05-21T05:47:03.784Z,75.37
2023-05-21T05:49:31.147Z,75.59
2023-05-21T05:51:58.306Z,75.33
2023-05-21T05:54:25.487Z,75.23
2023-05-21T05:56:52.508Z,74.33
2023-05-21T05:59:19.621Z,74.09
2023-05-21T06:01:49.698Z,74.12
2023-05-21T06:04:17.117Z,73.81
2023-05-21T06:06:44.177Z,74.18
2023-05-21T06:09:11.208Z,73.56
2023-05-21T06:11:38.622Z,73.35
2023-05-21T06:14:06.099Z,72.52
2023-05-21T06:16:34.003Z,72.38
2023-05-21T06:19:01.425Z,72.61
2023-05-21T06:21:28.717Z,72.80
2023-05-21T06:23:55.982Z,72.57
2023-05-21T06:26:23.974Z,71.33
2023-05-21T06:28:52.348Z,70.88
2023-05-21T06:31:22.439Z,68.44
2023-05-21T06:33:49.909Z,67.82
2023-05-21T06:36:17.354Z,66.42
2023-05-21T06:38:45.040Z,64.44
2023-05-21T06:41:12.026Z,64.81
2023-05-21T06:43:55.391Z,63.70
2023-05-21T06:46:40.792Z,64.60
2023-05-21T06:49:09.311Z,64.55
2023-05-21T06:51:36.822Z,63.61
2023-05-21T06:54:05.201Z,60.71
2023-05-21T06:56:34.224Z,58.56
2023-05-21T06:59:01.302Z,54.91
2023-05-21T07:01:28.296Z,51.47
2023-05-21T07:03:55.859Z,49.59
2023-05-21T07:06:22.940Z,50.44
2023-05-21T07:08:50.276Z,52.33
2023-05-21T07:11:17.534Z,54.34
2023-05-21T07:13:45.118Z,54.76
2023-05-21T07:16:12.548Z,55.81
2023-05-21T07:18:40.654Z,56.29
2023-05-21T07:21:07.690Z,57.31
2023-05-21T07:23:36.139Z,57.29
2023-05-21T07:26:03.143Z,57.79
2023-05-21T07:28:30.256Z,58.32
2023-05-21T07:30:57.464Z,58.72
2023-05-21T07:33:32.097Z,58.68
2023-05-21T07:35:59.175Z,59.28
2023-05-21T07:38:26.362Z,58.85
2023-05-21T07:40:53.606Z,59.48
2023-05-21T07:43:21.242Z,60.33
2023-05-21T07:45:48.440Z,59.17
2023-05-21T07:48:15.639Z,58.83
2023-05-21T07:50:53.086Z,59.48
2023-05-21T07:53:20.278Z,59.97
2023-05-21T07:55:48.091Z,59.19
2023-05-21T07:58:20.255Z,59.04
2023-05-21T08:00:48.808Z,59.41
2023-05-21T08:03:18.136Z,59.28
2023-05-21T08:05:49.146Z,58.88
2023-05-21T08:08:22.177Z,58.85
2023-05-21T08:10:51.165Z,59.40
2023-05-21T08:13:18.892Z,59.11
2023-05-21T08:15:50.593Z,58.63
2023-05-21T08:18:20.248Z,58.08
2023-05-21T08:20:48.550Z,57.03
2023-05-21T08:23:18.246Z,57.02
2023-05-21T08:25:49.906Z,57.69
2023-05-21T08:28:17.442Z,57.44
2023-05-21T08:30:44.521Z,57.69
2023-05-21T08:33:11.872Z,58.21
2023-05-21T08:35:39.421Z,59.04
2023-05-21T08:38:19.773Z,59.47
2023-05-21T08:41:07.290Z,59.59
2023-05-21T08:43:37.510Z,58.56
2023-05-21T08:46:05.033Z,59.09
2023-05-21T08:48:38.814Z,59.23
2023-05-21T08:51:06.501Z,58.94
2023-05-21T08:53:39.015Z,58.73
2023-05-21T08:56:10.039Z,57.51
2023-05-21T08:58:48.033Z,55.21
2023-05-21T09:01:19.626Z,54.26
2023-05-21T09:03:52.637Z,53.83
2023-05-21T09:06:20.643Z,53.19
2023-05-21T09:08:58.899Z,51.53
2023-05-21T09:11:30.984Z,54.04
2023-05-21T09:14:01.549Z,53.38
2023-05-21T09:16:43.111Z,54.44
2023-05-21T09:19:10.733Z,55.05
2023-05-21T09:21:39.898Z,52.82
2023-05-21T09:24:14.425Z,53.38
2023-05-21T09:26:45.225Z,53.63
2023-05-21T09:29:13.541Z,54.91
2023-05-21T09:31:45.422Z,52.79
2023-05-21T09:34:16.489Z,52.81
2023-05-21T09:36:46.135Z,53.36
2023-05-21T09:39:28.196Z,51.86
2023-05-21T09:41:58.976Z,53.06
2023-05-21T09:44:27.252Z,50.59
2023-05-21T09:47:01.092Z,50.64
2023-05-21T09:49:28.938Z,49.48
2023-05-21T09:52:00.582Z,48.91
2023-05-21T09:54:32.862Z,50.09
2023-05-21T09:57:03.185Z,50.22
2023-05-21T09:59:38.267Z,50.69
2023-05-21T10:02:18.061Z,51.10
2023-05-21T10:04:49.315Z,51.22
2023-05-21T10:07:26.065Z,51.00
2023-05-21T10:09:58.036Z,50.69
2023-05-21T10:12:26.140Z,50.60
2023-05-21T10:15:02.023Z,48.00
2023-05-21T10:17:34.913Z,48.00
2023-05-21T10:20:03.641Z,47.90
2023-05-21T10:22:31.803Z,46.29
2023-05-21T10:24:59.539Z,46.06
2023-05-21T10:27:29.861Z,46.65
2023-05-21T10:29:59.978Z,47.55
2023-05-21T10:32:27.592Z,46.42
2023-05-21T10:34:55.230Z,44.88
2023-05-21T10:37:28.971Z,44.48
2023-05-21T10:39:57.290Z,44.39
2023-05-21T10:42:24.276Z,42.93
2023-05-21T10:45:13.220Z,42.79
2023-05-21T10:48:33.933Z,37.72
2023-05-21T10:51:21.280Z,35.73
2023-05-21T10:53:58.524Z,37.21
2023-05-21T10:56:32.982Z,35.72
2023-05-21T10:58:59.942Z,36.12
2023-05-21T11:01:30.196Z,34.95
2023-05-21T11:03:58.130Z,32.17
2023-05-21T11:06:26.669Z,30.41
2023-05-21T11:08:55.511Z,30.37
2023-05-21T11:11:51.817Z,28.59
2023-05-21T11:14:32.879Z,30.94
2023-05-21T11:17:01.643Z,30.31
2023-05-21T11:19:43.501Z,29.75
2023-05-21T11:22:30.806Z,30.31
2023-05-21T11:25:01.943Z,31.50
2023-05-21T11:27:40.621Z,31.61
2023-05-21T11:30:09.809Z,33.38
2023-05-21T11:32:41.130Z,34.78
2023-05-21T11:35:08.939Z,34.85
2023-05-21T11:37:36.229Z,35.95
2023-05-21T11:40:19.740Z,37.30
2023-05-21T11:42:53.868Z,39.24
2023-05-21T11:45:29.739Z,41.00
2023-05-21T11:47:57.117Z,41.43
2023-05-21T11:50:24.379Z,41.42
2023-05-21T11:52:52.113Z,41.17
2023-05-21T11:55:25.082Z,41.78
2023-05-21T11:57:55.815Z,43.25
2023-05-21T12:00:23.569Z,42.72
2023-05-21T12:02:52.348Z,42.96
2023-05-21T12:05:19.914Z,42.57
2023-05-21T12:07:51.241Z,44.33
2023-05-21T12:10:21.738Z,43.98
2023-05-21T12:12:55.816Z,44.76
2023-05-21T12:15:25.090Z,45.32
2023-05-21T12:17:53.383Z,45.88
2023-05-21T12:20:21.100Z,47.38
2023-05-21T12:22:51.775Z,46.95
2023-05-21T12:25:23.054Z,47.29
2023-05-21T12:27:57.907Z,47.53
2023-05-21T12:30:26.265Z,49.35
2023-05-21T12:32:53.537Z,48.05
2023-05-21T12:35:21.958Z,49.27
2023-05-21T12:37:50.979Z,49.41
2023-05-21T12:40:18.441Z,48.87
2023-05-21T12:42:45.676Z,49.34
2023-05-21T12:45:13.338Z,50.54
2023-05-21T12:47:40.440Z,51.24
2023-05-21T12:50:14.285Z,50.19
2023-05-21T12:52:44.299Z,51.08
2023-05-21T12:55:13.704Z,51.81
2023-05-21T12:57:41.050Z,51.18
2023-05-21T13:00:09.095Z,50.28
2023-05-21T13:02:41.375Z,50.50
2023-05-21T13:05:10.785Z,50.72
2023-05-21T13:07:39.836Z,50.79
2023-05-21T13:10:08.334Z,49.84
2023-05-21T13:12:35.903Z,50.88
2023-05-21T13:15:05.180Z,50.34
2023-05-21T13:17:38.936Z,51.44
2023-05-21T13:20:18.381Z,52.76
2023-05-21T13:22:52.276Z,51.93
2023-05-21T13:25:25.253Z,52.18
2023-05-21T13:27:53.457Z,53.05
2023-05-21T13:30:22.612Z,52.71
2023-05-21T13:32:50.353Z,52.82
2023-05-21T13:35:17.676Z,52.32
2023-05-21T13:37:45.940Z,51.88
2023-05-21T13:40:15.512Z,52.26
2023-05-21T13:42:45.535Z,50.69
2023-05-21T13:45:14.586Z,49.62
2023-05-21T13:47:42.673Z,49.55
2023-05-21T13:50:10.684Z,49.31
2023-05-21T13:52:38.606Z,50.07
2023-05-21T13:55:06.664Z,49.47
2023-05-21T13:57:33.881Z,49.05
2023-05-21T14:00:01.508Z,48.66
2023-05-21T14:02:34.736Z,49.86
2023-05-21T14:05:02.196Z,50.30
2023-05-21T14:07:32.649Z,49.64
2023-05-21T14:09:59.922Z,49.84
2023-05-21T14:12:27.239Z,51.24
2023-05-21T14:14:54.289Z,51.26
2023-05-21T14:17:21.429Z,51.82
2023-05-21T14:19:48.602Z,51.77
2023-05-21T14:22:15.903Z,51.47
2023-05-21T14:24:43.938Z,51.67
2023-05-21T14:27:13.125Z,51.57
2023-05-21T14:29:41.723Z,52.46
2023-05-21T14:32:08.955Z,52.26
2023-05-21T14:34:37.475Z,53.32
2023-05-21T14:37:04.507Z,53.46
2023-05-21T14:39:34.490Z,53.66
2023-05-21T14:42:04.991Z,54.77
2023-05-21T14:44:34.312Z,55.31
2023-05-21T14:47:01.617Z,55.09
2023-05-21T14:49:31.623Z,54.99
2023-05-21T14:51:58.562Z,55.62
2023-05-21T14:54:25.597Z,55.94
2023-05-21T14:56:52.854Z,55.62
2023-05-21T14:59:20.001Z,54.88
2023-05-21T15:01:47.133Z,55.15
2023-05-21T15:04:14.312Z,54.69
2023-05-21T15:06:42.077Z,54.22
2023-05-21T15:09:09.242Z,54.69
2023-05-21T15:11:36.336Z,54.17
2023-05-21T15:14:03.291Z,53.46
2023-05-21T15:16:30.338Z,52.92
2023-05-21T15:18:57.500Z,52.51
2023-05-21T15:21:27.253Z,51.17
2023-05-21T15:23:55.544Z,51.10
2023-05-21T15:26:25.254Z,51.26
2023-05-21T15:28:52.916Z,50.67
2023-05-21T15:31:20.074Z,51.36
2023-05-21T15:33:47.137Z,52.27
2023-05-21T15:36:14.035Z,51.92
2023-05-21T15:38:41.111Z,53.15
2023-05-21T15:41:08.381Z,53.64
2023-05-21T15:43:35.802Z,53.75
2023-05-21T15:46:03.201Z,52.36
2023-05-21T15:48:30.387Z,52.30
2023-05-21T15:50:57.666Z,52.45
2023-05-21T15:53:25.075Z,51.43
2023-05-21T15:55:52.140Z,51.78
2023-05-21T15:58:19.283Z,51.59
2023-05-21T16:00:46.412Z,51.39
2023-05-21T16:03:13.775Z,51.43
2023-05-21T16:05:41.001Z,52.26
2023-05-21T16:08:10.816Z,51.94
2023-05-21T16:10:42.306Z,51.90
2023-05-21T16:13:09.555Z,52.76
2023-05-21T16:15:36.950Z,52.34
2023-05-21T16:18:04.360Z,52.09
2023-05-21T16:20:31.700Z,52.67
2023-05-21T16:22:58.743Z,52.64
2023-05-21T16:25:25.826Z,53.21
2023-05-21T16:27:52.976Z,52.87
2023-05-21T16:30:20.178Z,52.70
2023-05-21T16:32:47.222Z,53.76
2023-05-21T16:35:15.932Z,53.86
2023-05-21T16:37:42.976Z,54.07
2023-05-21T16:40:10.592Z,54.81
2023-05-21T16:42:37.778Z,54.39
2023-05-21T16:45:05.154Z,54.65
2023-05-21T16:47:32.374Z,55.67
2023-05-21T16:50:00.963Z,55.17
2023-05-21T16:52:28.009Z,55.05
2023-05-21T16:54:54.992Z,55.37
2023-05-21T16:57:22.011Z,55.87
2023-05-21T16:59:49.343Z,56.55
2023-05-21T17:02:16.657Z,57.16
2023-05-21T17:04:43.848Z,57.05
2023-05-21T17:07:10.796Z,57.70
2023-05-21T17:09:37.921Z,58.12
2023-05-21T17:12:05.168Z,58.58
2023-05-21T17:14:34.152Z,58.68
2023-05-21T17:17:02.565Z,58.87
2023-05-21T17:19:29.670Z,59.55
2023-05-21T17:21:56.842Z,59.57
2023-05-21T17:24:23.965Z,59.81
2023-05-21T17:26:51.255Z,59.79
2023-05-21T17:29:18.904Z,60.03
2023-05-21T17:31:46.035Z,60.33
2023-05-21T17:34:13.250Z,60.57
2023-05-21T17:36:40.291Z,60.82
2023-05-21T17:39:07.237Z,61.12
2023-05-21T17:41:34.285Z,61.64
2023-05-21T17:44:01.540Z,61.93
2023-05-21T17:46:28.773Z,62.08
2023-05-21T17:48:55.918Z,62.37
2023-05-21T17:51:22.952Z,62.56
2023-05-21T17:53:49.913Z,62.83
2023-05-21T17:56:17.156Z,63.10
2023-05-21T17:58:44.152Z,63.25
2023-05-21T18:01:11.227Z,63.32
2023-05-21T18:03:38.275Z,63.75
2023-05-21T18:06:08.130Z,64.01
2023-05-21T18:08:36.352Z,64.38
2023-05-21T18:11:03.477Z,64.81
2023-05-21T18:13:30.569Z,64.99
2023-05-21T18:15:58.501Z,65.67
2023-05-21T18:18:25.542Z,65.95
2023-05-21T18:20:53.318Z,66.15
2023-05-21T18:23:20.897Z,66.27
2023-05-21T18:25:47.986Z,66.48
2023-05-21T18:28:15.064Z,67.26
2023-05-21T18:30:42.173Z,67.80
2023-05-21T18:33:09.427Z,68.12
2023-05-21T18:35:36.527Z,68.13
2023-05-21T18:38:04.394Z,69.09
2023-05-21T18:40:33.409Z,68.89
2023-05-21T18:43:00.910Z,69.57
2023-05-21T18:45:28.611Z,69.37
2023-05-21T18:47:56.249Z,69.78
2023-05-21T18:50:23.274Z,70.10
2023-05-21T18:52:53.944Z,70.88
2023-05-21T18:55:21.431Z,71.06
2023-05-21T18:57:48.430Z,71.12
2023-05-21T19:00:15.743Z,71.04
2023-05-21T19:02:46.963Z,71.67
2023-05-21T19:05:14.629Z,71.77
2023-05-21T19:07:42.075Z,71.95
2023-05-21T19:10:11.701Z,72.36
2023-05-21T19:12:39.665Z,72.70
2023-05-21T19:15:07.655Z,72.37
2023-05-21T19:17:36.467Z,72.76
2023-05-21T19:20:05.502Z,72.67
2023-05-21T19:22:33.722Z,73.54
2023-05-21T19:25:01.000Z,73.42
2023-05-21T19:27:29.720Z,73.69
2023-05-21T19:29:56.902Z,74.48
2023-05-21T19:32:24.163Z,74.34
2023-05-21T19:34:52.333Z,74.92
2023-05-21T19:37:19.570Z,75.03
2023-05-21T19:39:50.058Z,75.00
2023-05-21T19:42:17.894Z,75.03
2023-05-21T19:44:44.941Z,74.93
2023-05-21T19:47:12.022Z,75.74
2023-05-21T19:49:39.013Z,75.78
2023-05-21T19:52:06.238Z,75.95
2023-05-21T19:54:33.419Z,76.35
2023-05-21T19:57:01.058Z,76.33
2023-05-21T19:59:28.453Z,76.25
2023-05-21T20:01:55.621Z,76.71
2023-05-21T20:04:22.742Z,78.04
2023-05-21T20:06:49.914Z,78.31
2023-05-21T20:09:18.105Z,78.55
2023-05-21T20:11:45.148Z,78.39
2023-05-21T20:14:12.176Z,79.22
2023-05-21T20:16:39.162Z,79.89
2023-05-21T20:19:06.345Z,79.75
2023-05-21T20:21:33.607Z,80.58
2023-05-21T20:24:00.678Z,80.66
2023-05-21T20:26:27.756Z,80.10
2023-05-21T20:28:54.766Z,80.46
2023-05-21T20:31:22.701Z,81.20
2023-05-21T20:33:50.748Z,81.74
2023-05-21T20:36:18.005Z,81.51
2023-05-21T20:38:45.775Z,82.21
2023-05-21T20:41:13.408Z,82.45
2023-05-21T20:43:40.533Z,82.66
2023-05-21T20:46:07.914Z,82.65
2023-05-21T20:48:35.481Z,83.03
2023-05-21T20:51:04.728Z,83.43
2023-05-21T20:53:32.225Z,83.87
2023-05-21T20:56:01.717Z,83.24
2023-05-21T20:58:29.616Z,82.79
2023-05-21T21:00:56.651Z,83.90
2023-05-21T21:03:23.838Z,83.52
2023-05-21T21:05:51.060Z,83.55
2023-05-21T21:08:18.147Z,83.64
2023-05-21T21:10:47.091Z,83.84
2023-05-21T21:13:15.097Z,84.24
2023-05-21T21:15:46.044Z,84.00
2023-05-21T21:18:14.844Z,84.98
2023-05-21T21:20:47.954Z,85.05
2023-05-21T21:23:15.443Z,85.50
2023-05-21T21:25:42.457Z,86.03
2023-05-21T21:28:10.753Z,85.70
2023-05-21T21:30:40.869Z,86.63
2023-05-21T21:33:08.699Z,86.66
2023-05-21T21:35:36.138Z,86.92
2023-05-21T21:38:05.118Z,87.40
2023-05-21T21:40:39.272Z,87.70
2023-05-21T21:43:08.777Z,87.50
2023-05-21T21:45:35.861Z,87.88
2023-05-21T21:48:02.973Z,87.41
2023-05-21T21:50:30.073Z,87.40
2023-05-21T21:52:57.458Z,87.15
2023-05-21T21:55:24.550Z,86.86
2023-05-21T21:57:53.265Z,87.12
2023-05-21T22:00:26.667Z,88.03
2023-05-21T22:02:54.113Z,88.16
2023-05-21T22:05:21.268Z,87.74
2023-05-21T22:07:48.480Z,87.43
2023-05-21T22:10:16.815Z,88.11
2023-05-21T22:12:52.372Z,88.21
2023-05-21T22:15:23.940Z,87.92
2023-05-21T22:17:52.166Z,88.10
2023-05-21T22:20:19.821Z,88.07
2023-05-21T22:22:47.133Z,87.89
2023-05-21T22:25:14.486Z,88.35
2023-05-21T22:27:42.392Z,88.81
2023-05-21T22:30:10.214Z,88.97
2023-05-21T22:32:37.946Z,88.38
2023-05-21T22:35:05.847Z,88.21
2023-05-21T22:37:33.032Z,88.24
2023-05-21T22:39:59.965Z,87.92
2023-05-21T22:42:27.210Z,87.99
2023-05-21T22:44:54.258Z,87.28
2023-05-21T22:47:23.982Z,87.53
2023-05-21T22:49:54.255Z,87.33
2023-05-21T22:52:24.179Z,87.27
2023-05-21T22:54:54.757Z,87.38
2023-05-21T22:57:21.857Z,87.46
2023-05-21T22:59:48.942Z,87.95
2023-05-21T23:02:16.558Z,87.89
2023-05-21T23:04:44.709Z,88.51
2023-05-21T23:07:12.388Z,88.12
2023-05-21T23:09:39.810Z,88.40
2023-05-21T23:12:08.266Z,88.79
2023-05-21T23:14:35.391Z,89.03
2023-05-21T23:17:02.565Z,89.26
2023-05-21T23:19:29.976Z,88.71
2023-05-21T23:21:57.329Z,88.47
2023-05-21T23:24:24.520Z,89.30
2023-05-21T23:26:52.523Z,89.59
2023-05-21T23:29:19.499Z,89.66
2023-05-21T23:31:47.055Z,89.56
2023-05-21T23:34:14.667Z,89.50
2023-05-21T23:36:41.820Z,89.42
2023-05-21T23:39:09.442Z,89.88
2023-05-21T23:41:36.584Z,90.05
2023-05-21T23:44:03.761Z,90.46
2023-05-21T23:46:30.996Z,90.29
2023-05-21T23:48:58.305Z,90.71
2023-05-21T23:51:25.588Z,90.79
2023-05-21T23:53:54.245Z,90.54
2023-05-21T23:56:21.588Z,90.71
2023-05-21T23:58:48.651Z,90.70
